Bookmark and Share
Track history (hours):
 

Rona II

Last reported at 2014-Apr-20 11:20 UTC. Time now 2014-Apr-20 19:05 UTC.
Position N 50°51' W 001°19'.

Length 22 m.

Type: Sailing vessel. MMSI: 232714000.

NotesDate/timePositionNaut miles runAvg speedWind from/ knotsBaromVisibWave heightAir tempDewpointWater temp
2014-Apr-20 11:20N 50°51' W 001°19'3 4.4
2014-Apr-20 10:33N 50°48' W 001°16'2 2.1
2014-Apr-20 09:34N 50°47' W 001°14'3 0.1
2014-Apr-19 15:33N 50°45' W 001°18'4 3.7
2014-Apr-19 14:33N 50°48' W 001°14'2 1.6
2014-Apr-19 13:33N 50°47' W 001°15'3 3.1
2014-Apr-19 12:34N 50°45' W 001°11'2 1.7
2014-Apr-19 11:33N 50°46' W 001°08'1 1.3
2014-Apr-19 10:33N 50°46' W 001°10'4 3.6
2014-Apr-19 09:33N 50°48' W 001°15'5 4.6
2014-Apr-19 08:23N 50°53' W 001°18'  
2014-Apr-11 10:23N 50°51' W 001°19'4 4.9
2014-Apr-11 09:33N 50°47' W 001°19'2 1.6
2014-Apr-11 08:31N 50°46' W 001°18'0 0.0
2014-Apr-11 07:31N 50°46' W 001°18'0 0.0
2014-Apr-11 06:31N 50°46' W 001°18'0 0.0
2014-Apr-11 05:31N 50°46' W 001°18'0 0.0
2014-Apr-11 04:31N 50°46' W 001°18'0 0.0
2014-Apr-11 03:31N 50°46' W 001°18'0 0.0
2014-Apr-11 02:31N 50°46' W 001°18'0 0.0
2014-Apr-11 01:31N 50°46' W 001°18'0 0.0
2014-Apr-11 00:31N 50°46' W 001°18'0 0.0
2014-Apr-10 23:31N 50°46' W 001°18'0 0.0
2014-Apr-10 22:31N 50°46' W 001°18'0 0.0
2014-Apr-10 21:31N 50°46' W 001°18'0 0.0
2014-Apr-10 20:31N 50°46' W 001°18'0 0.0
2014-Apr-10 19:31N 50°46' W 001°18'0 0.0
2014-Apr-10 18:31N 50°46' W 001°18'0 0.0
2014-Apr-10 17:31N 50°46' W 001°18'0 0.0
2014-Apr-10 16:31N 50°46' W 001°18'0 0.0
2014-Apr-10 15:31N 50°46' W 001°18'0 0.0
2014-Apr-10 14:31N 50°46' W 001°18'1 1.5
2014-Apr-10 13:33N 50°46' W 001°20'4 3.3
2014-Apr-10 12:26N 50°44' W 001°25'0 0.3
2014-Apr-10 11:23N 50°44' W 001°25'  

Dump ship's entire track history

sailing weather and tide predictions

Rona II — MPKR2 — position and weather